Time;durP1;ratioP1;P1;durP2;ratioP2;P2;SDS_P1;SDS_P2;PMS_P1;PMS_P2;Temp;Humidity;BMP_temperature;BMP_pressure;BME280_temperature;BME280_humidity;BME280_pressure;Samples;Min_cycle;Max_cycle;Signal;HPM_P1;HPM_P2
2023/08/08 00:00:22;;;;;;;3.87;2.10;;;;;;;13.01;82.44;100477.50;5075777;28;20236;-81
2023/08/08 00:02:49;;;;;;;4.80;2.10;;;;;;;12.99;82.85;100476.75;5077042;28;20230;-82
2023/08/08 00:05:15;;;;;;;2.93;1.73;;;;;;;12.97;83.30;100477.84;5077321;28;20213;-82
2023/08/08 00:07:42;;;;;;;3.10;1.90;;;;;;;12.96;83.55;100476.13;5076853;28;20202;-83
2023/08/08 00:10:09;;;;;;;4.63;1.83;;;;;;;12.95;83.90;100472.59;5076638;28;20236;-82
2023/08/08 00:12:37;;;;;;;5.60;2.40;;;;;;;12.96;84.50;100476.13;5076293;28;20267;-82
2023/08/08 00:15:04;;;;;;;5.57;1.93;;;;;;;12.97;85.25;100473.34;5076947;28;20216;-82
2023/08/08 00:17:30;;;;;;;2.90;2.13;;;;;;;12.97;85.46;100476.00;5075815;28;20231;-82
2023/08/08 00:19:57;;;;;;;2.70;2.03;;;;;;;12.93;85.75;100463.00;5075305;28;20225;-84
2023/08/08 00:22:23;;;;;;;3.93;1.80;;;;;;;12.92;86.24;100472.84;5075575;28;20754;-83
2023/08/08 00:24:50;;;;;;;4.73;2.00;;;;;;;12.93;86.89;100471.88;5075470;28;20208;-83
2023/08/08 00:27:16;;;;;;;4.67;2.30;;;;;;;12.94;86.88;100462.88;5075340;28;20213;-82
2023/08/08 00:29:45;;;;;;;3.63;1.90;;;;;;;12.91;87.17;100457.75;5075288;28;20229;-81
2023/08/08 00:32:11;;;;;;;2.80;1.90;;;;;;;12.94;87.47;100454.84;5075065;28;20334;-82
2023/08/08 00:34:38;;;;;;;2.60;2.07;;;;;;;12.96;87.42;100452.06;5074998;28;20208;-83
2023/08/08 00:37:04;;;;;;;5.60;2.00;;;;;;;12.93;87.58;100453.16;5075032;28;20211;-83
2023/08/08 00:39:31;;;;;;;5.43;2.30;;;;;;;12.93;87.82;100445.13;5074870;28;20224;-83
2023/08/08 00:41:57;;;;;;;3.97;1.87;;;;;;;12.96;88.00;100441.38;5075013;28;20228;-83
2023/08/08 00:44:24;;;;;;;2.87;1.80;;;;;;;12.95;88.39;100434.31;5074754;28;20573;-82
2023/08/08 00:46:52;;;;;;;3.43;2.10;;;;;;;12.93;88.57;100431.78;5074888;28;20216;-83
2023/08/08 00:49:19;;;;;;;2.80;1.90;;;;;;;12.93;88.74;100431.78;5074930;28;20318;-83
2023/08/08 00:51:46;;;;;;;5.23;2.20;;;;;;;12.95;88.77;100437.84;5085392;28;20197;-83
2023/08/08 00:54:13;;;;;;;2.83;1.90;;;;;;;12.94;88.75;100436.16;5087799;28;20204;-83
2023/08/08 00:56:40;;;;;;;4.07;2.10;;;;;;;12.92;89.02;100439.91;5095208;28;20212;-82
2023/08/08 00:59:09;;;;;;;3.57;2.30;;;;;;;12.92;89.53;100435.41;5081347;28;20228;-82
2023/08/08 01:01:36;;;;;;;4.07;2.10;;;;;;;12.92;89.34;100430.06;5083144;28;20216;-82
2023/08/08 01:04:06;;;;;;;2.97;2.40;;;;;;;12.94;89.72;100429.94;5094844;28;20212;-83
2023/08/08 01:06:38;;;;;;;3.97;2.60;;;;;;;12.90;89.51;100425.84;5094742;28;20277;-83
2023/08/08 01:09:11;;;;;;;4.00;2.37;;;;;;;12.90;89.87;100426.66;5086342;28;20693;-83
2023/08/08 01:11:38;;;;;;;5.80;2.40;;;;;;;12.90;89.37;100429.31;5085237;28;20656;-82
2023/08/08 01:14:08;;;;;;;3.57;2.43;;;;;;;12.90;89.56;100429.31;5074430;28;20212;-82
2023/08/08 01:16:35;;;;;;;3.77;2.13;;;;;;;12.88;89.77;100423.28;5091594;28;20577;-84
2023/08/08 01:19:05;;;;;;;6.30;2.23;;;;;;;12.86;89.89;100423.38;5096545;28;20228;-83
2023/08/08 01:21:36;;;;;;;3.80;2.07;;;;;;;12.85;89.97;100423.50;5095362;28;20211;-82
2023/08/08 01:24:13;;;;;;;4.03;2.30;;;;;;;12.84;89.95;100424.47;5095284;28;20789;-82
2023/08/08 01:26:41;;;;;;;3.73;2.27;;;;;;;12.85;90.12;100418.16;5095368;28;20184;-82
2023/08/08 01:29:07;;;;;;;3.83;2.10;;;;;;;12.82;90.35;100411.22;5094524;28;20289;-84
2023/08/08 01:31:34;;;;;;;3.67;2.47;;;;;;;12.83;90.30;100414.75;5094302;28;20216;-83
2023/08/08 01:34:00;;;;;;;3.33;2.30;;;;;;;12.84;90.54;100411.09;5093739;28;20204;-82
2023/08/08 01:36:33;;;;;;;2.77;1.97;;;;;;;12.82;90.15;100413.91;5093933;28;20345;-82
2023/08/08 01:39:04;;;;;;;4.23;2.00;;;;;;;12.79;90.84;100414.13;5094077;28;20228;-82
2023/08/08 01:41:33;;;;;;;5.17;2.00;;;;;;;12.80;90.88;100401.63;5085849;28;20216;-82
2023/08/08 01:44:01;;;;;;;2.90;1.90;;;;;;;12.79;91.14;100398.09;5091811;28;20226;-82
2023/08/08 01:46:28;;;;;;;3.50;2.23;;;;;;;12.75;91.00;100390.41;5094512;28;20217;-82
2023/08/08 01:48:54;;;;;;;3.13;2.03;;;;;;;12.75;91.54;100388.59;5094027;28;20228;-82
2023/08/08 01:51:21;;;;;;;4.87;2.77;;;;;;;12.75;91.64;100390.41;5093846;28;20293;-83
2023/08/08 01:53:47;;;;;;;4.87;2.23;;;;;;;12.77;91.72;100401.84;5093968;28;20214;-82
2023/08/08 01:56:14;;;;;;;5.37;2.20;;;;;;;12.76;91.75;100398.31;5093430;28;20224;-84
2023/08/08 01:58:41;;;;;;;2.73;2.20;;;;;;;12.79;91.80;100392.75;5093715;28;20211;-83
2023/08/08 02:01:08;;;;;;;3.00;2.43;;;;;;;12.79;91.80;100395.41;5093566;28;20208;-83
2023/08/08 02:03:34;;;;;;;3.90;2.57;;;;;;;12.76;91.90;100387.63;5092323;28;20475;-84
2023/08/08 02:06:01;;;;;;;3.00;2.27;;;;;;;12.73;92.60;100390.53;5084690;28;20225;-83
2023/08/08 02:08:27;;;;;;;4.93;2.80;;;;;;;12.75;92.63;100385.91;5094253;28;20684;-83
2023/08/08 02:10:54;;;;;;;5.77;3.27;;;;;;;12.74;92.62;100378.88;5093833;28;20577;-81
2023/08/08 02:13:20;;;;;;;3.50;2.60;;;;;;;12.76;92.68;100366.25;5093841;28;20214;-83
2023/08/08 02:15:48;;;;;;;3.80;2.83;;;;;;;12.75;92.61;100369.88;5093847;28;20210;-82
2023/08/08 02:18:15;;;;;;;4.00;2.90;;;;;;;12.74;93.18;100362.00;5093450;28;20209;-82
2023/08/08 02:20:41;;;;;;;4.80;3.30;;;;;;;12.74;93.37;100362.00;5094063;28;20224;-82
2023/08/08 02:23:08;;;;;;;4.43;3.07;;;;;;;12.75;93.79;100358.34;5093657;28;20742;-82
2023/08/08 02:25:34;;;;;;;5.20;2.73;;;;;;;12.77;93.74;100346.56;5093418;28;20212;-81
2023/08/08 02:28:01;;;;;;;5.37;3.00;;;;;;;12.81;93.43;100350.72;5073275;28;20216;-82
2023/08/08 02:30:27;;;;;;;4.37;2.77;;;;;;;12.84;93.84;100339.78;5082056;28;20753;-82
2023/08/08 02:32:55;;;;;;;5.97;3.13;;;;;;;12.88;93.70;100344.91;5093241;28;20200;-82
2023/08/08 02:35:22;;;;;;;6.37;3.50;;;;;;;12.90;93.82;100354.47;5093104;28;20209;-83
2023/08/08 02:37:48;;;;;;;4.27;2.73;;;;;;;12.94;94.47;100347.94;5092647;28;20215;-82
2023/08/08 02:40:15;;;;;;;6.13;2.77;;;;;;;12.94;94.38;100353.28;5092878;28;20235;-83
2023/08/08 02:42:41;;;;;;;6.80;2.90;;;;;;;12.96;94.60;100347.81;5092472;28;20228;-83
2023/08/08 02:45:09;;;;;;;4.20;2.70;;;;;;;13.00;94.54;100350.16;5093975;28;20684;-82
2023/08/08 02:47:35;;;;;;;3.80;2.90;;;;;;;13.03;94.65;100349.06;5078052;28;20196;-84
2023/08/08 02:50:03;;;;;;;4.83;3.03;;;;;;;13.02;94.21;100352.69;5085811;28;20228;-83
2023/08/08 02:52:30;;;;;;;4.93;2.73;;;;;;;13.00;94.40;100355.50;5095658;28;20196;-83
2023/08/08 02:54:56;;;;;;;4.53;3.10;;;;;;;13.00;94.56;100351.97;5092737;28;20219;-83
2023/08/08 02:57:23;;;;;;;5.47;3.07;;;;;;;12.99;94.74;100351.13;5093715;28;20260;-83
2023/08/08 02:59:49;;;;;;;4.90;2.90;;;;;;;13.00;95.28;100346.63;5093609;28;20230;-83
2023/08/08 03:02:16;;;;;;;5.03;3.13;;;;;;;13.07;94.90;100351.38;5093523;28;20814;-82
2023/08/08 03:04:42;;;;;;;4.20;2.77;;;;;;;13.06;95.16;100347.00;5093373;28;20200;-82
2023/08/08 03:07:10;;;;;;;5.00;2.73;;;;;;;13.09;94.95;100344.06;5092948;28;20232;-83
2023/08/08 03:09:36;;;;;;;5.20;2.80;;;;;;;13.10;95.07;100355.59;5092780;28;20231;-82
2023/08/08 03:12:03;;;;;;;4.57;3.13;;;;;;;13.11;94.84;100355.50;5092702;28;20679;-82
2023/08/08 03:14:30;;;;;;;5.13;3.10;;;;;;;13.15;95.02;100350.78;5095395;28;20197;-82
2023/08/08 03:16:56;;;;;;;4.20;2.93;;;;;;;13.16;94.72;100347.16;5099175;28;20219;-82
2023/08/08 03:19:23;;;;;;;4.63;3.40;;;;;;;13.19;94.13;100345.09;5094174;28;20235;-82
2023/08/08 03:21:49;;;;;;;4.97;3.37;;;;;;;13.17;94.72;100352.38;5079191;28;20649;-83
2023/08/08 03:24:17;;;;;;;3.90;2.40;;;;;;;13.24;94.10;100338.53;5095240;28;20235;-83
2023/08/08 03:26:44;;;;;;;6.30;2.93;;;;;;;13.24;94.10;100333.19;5098189;28;20212;-83
2023/08/08 03:29:10;;;;;;;9.57;2.97;;;;;;;13.24;94.07;100333.19;5099068;28;20226;-82
2023/08/08 03:31:37;;;;;;;5.67;3.00;;;;;;;13.27;93.65;100327.56;5091922;28;20208;-84
2023/08/08 03:34:04;;;;;;;5.50;3.10;;;;;;;13.25;93.79;100330.41;5098063;28;20200;-83
2023/08/08 03:36:30;;;;;;;4.93;3.07;;;;;;;13.24;93.92;100333.19;5082488;28;20574;-83
2023/08/08 03:38:57;;;;;;;5.10;3.17;;;;;;;13.25;93.71;100332.22;5078485;28;20228;-83
2023/08/08 03:41:25;;;;;;;4.97;3.27;;;;;;;13.28;93.21;100331.94;5078534;28;20205;-83
2023/08/08 03:43:51;;;;;;;2.93;2.40;;;;;;;13.27;93.18;100338.25;5078398;28;20230;-82
2023/08/08 03:46:18;;;;;;;3.23;2.77;;;;;;;13.27;93.24;100340.94;5079190;28;20204;-82
2023/08/08 03:48:44;;;;;;;3.80;2.60;;;;;;;13.27;93.30;100344.47;5078952;28;20208;-82
2023/08/08 03:51:11;;;;;;;4.70;2.60;;;;;;;13.26;93.26;100349.94;5079568;28;20209;-81
2023/08/08 03:53:37;;;;;;;2.87;2.43;;;;;;;13.25;93.18;100327.72;5079670;28;20205;-82
2023/08/08 03:56:04;;;;;;;5.43;2.80;;;;;;;13.29;92.67;100325.63;5078517;28;20219;-82
2023/08/08 03:58:32;;;;;;;3.37;2.30;;;;;;;13.32;92.76;100325.38;5079647;28;20592;-82
2023/08/08 04:00:58;;;;;;;5.33;2.53;;;;;;;13.30;92.41;100320.16;5090057;28;20192;-82
2023/08/08 04:03:25;;;;;;;3.63;2.30;;;;;;;13.31;91.85;100312.97;5099833;28;20302;-82
2023/08/08 04:05:51;;;;;;;4.77;2.70;;;;;;;13.32;92.08;100315.53;5100427;28;20235;-83
2023/08/08 04:08:18;;;;;;;4.63;2.53;;;;;;;13.30;92.18;100324.66;5099747;28;20196;-81
2023/08/08 04:10:47;;;;;;;3.20;2.43;;;;;;;13.28;92.32;100316.75;5100783;28;20220;-83
2023/08/08 04:13:14;;;;;;;4.13;2.53;;;;;;;13.31;92.30;100312.97;5100035;28;20282;-83
2023/08/08 04:15:42;;;;;;;3.27;2.00;;;;;;;13.29;92.26;100313.09;5100065;28;20204;-82
2023/08/08 04:18:08;;;;;;;3.80;2.47;;;;;;;13.30;92.32;100314.81;5098973;28;20207;-82
2023/08/08 04:20:35;;;;;;;2.83;2.30;;;;;;;13.30;92.57;100321.97;5099358;28;20224;-82
2023/08/08 04:23:02;;;;;;;2.80;2.00;;;;;;;13.32;92.27;100320.88;5097471;28;20235;-82
2023/08/08 04:25:29;;;;;;;4.17;2.27;;;;;;;13.31;92.31;100316.50;5089098;28;20196;-83
2023/08/08 04:27:55;;;;;;;3.20;2.20;;;;;;;13.32;92.31;100325.38;5098360;28;20200;-82
2023/08/08 04:30:22;;;;;;;3.83;2.00;;;;;;;13.32;92.73;100325.38;5096821;28;20235;-83
2023/08/08 04:32:50;;;;;;;3.00;2.13;;;;;;;13.32;92.61;100320.88;5096425;28;20617;-84
2023/08/08 04:35:17;;;;;;;2.83;2.07;;;;;;;13.30;92.59;100322.81;5096371;28;20209;-82
2023/08/08 04:37:43;;;;;;;3.77;2.10;;;;;;;13.28;92.54;100310.56;5096393;28;20561;-83
2023/08/08 04:40:11;;;;;;;4.20;2.30;;;;;;;13.32;93.29;100314.69;5095791;28;20224;-83
2023/08/08 04:42:37;;;;;;;4.80;2.47;;;;;;;13.33;92.82;100321.75;5095706;28;20193;-82
2023/08/08 04:45:05;;;;;;;3.53;1.90;;;;;;;13.32;92.94;100309.34;5086209;28;20252;-84
2023/08/08 04:47:32;;;;;;;3.10;2.33;;;;;;;13.34;92.74;100318.09;5081694;28;20565;-83
2023/08/08 04:49:59;;;;;;;3.47;2.33;;;;;;;13.33;92.76;100308.38;5097236;28;20224;-83
2023/08/08 04:52:26;;;;;;;3.47;1.90;;;;;;;13.36;93.02;100305.44;5097123;28;20280;-84
2023/08/08 04:54:52;;;;;;;2.43;1.90;;;;;;;13.38;92.57;100311.53;5097830;28;20206;-83
2023/08/08 04:57:19;;;;;;;1.80;1.70;;;;;;;13.39;92.40;100307.88;5093844;28;20291;-83
2023/08/08 04:59:46;;;;;;;3.30;2.50;;;;;;;13.40;92.40;100309.59;5076958;28;20312;-84
2023/08/08 05:02:12;;;;;;;2.60;1.90;;;;;;;13.43;92.34;100309.34;5077588;28;20215;-83
2023/08/08 05:04:39;;;;;;;4.83;2.63;;;;;;;13.40;92.02;100306.91;5076974;28;20582;-83
2023/08/08 05:07:07;;;;;;;4.53;2.20;;;;;;;13.40;92.05;100305.09;5077507;28;20212;-83
2023/08/08 05:09:34;;;;;;;4.00;2.40;;;;;;;13.44;92.44;100311.00;5076588;28;20229;-84
2023/08/08 05:12:00;;;;;;;4.20;2.90;;;;;;;13.50;92.02;100303.34;5095059;28;20209;-82
2023/08/08 05:14:27;;;;;;;6.87;2.33;;;;;;;13.53;91.50;100297.75;5096918;28;20598;-85
2023/08/08 05:16:53;;;;;;;2.93;2.43;;;;;;;13.58;91.26;100293.88;5096509;28;20204;-83
2023/08/08 05:19:20;;;;;;;6.20;2.63;;;;;;;13.61;91.64;100291.81;5079456;28;20216;-83
2023/08/08 05:21:46;;;;;;;4.03;3.07;;;;;;;13.60;91.69;100286.56;5080391;28;20354;-83
2023/08/08 05:24:14;;;;;;;5.30;3.57;;;;;;;13.63;91.71;100289.81;5089929;28;20876;-83
2023/08/08 05:26:40;;;;;;;3.77;2.90;;;;;;;13.66;91.35;100281.56;5095244;28;20667;-83
2023/08/08 05:29:07;;;;;;;7.07;3.30;;;;;;;13.69;90.98;100285.81;5094367;28;20227;-83
2023/08/08 05:31:33;;;;;;;6.47;3.00;;;;;;;13.71;90.96;100276.69;5095345;28;20204;-83
2023/08/08 05:34:00;;;;;;;4.50;3.33;;;;;;;13.76;91.30;100274.47;5094351;28;20287;-83
2023/08/08 05:36:26;;;;;;;5.70;3.27;;;;;;;13.76;91.04;100270.97;5094509;28;20208;-82
2023/08/08 05:38:53;;;;;;;4.13;3.77;;;;;;;13.78;90.89;100280.56;5093640;28;20232;-82
2023/08/08 05:41:21;;;;;;;6.83;4.03;;;;;;;13.80;91.04;100269.69;5094316;28;20204;-82
2023/08/08 05:43:47;;;;;;;4.60;3.73;;;;;;;13.85;90.53;100275.53;5093617;28;20224;-82
2023/08/08 05:46:14;;;;;;;5.13;4.03;;;;;;;13.86;90.79;100277.22;5093568;28;20299;-83
2023/08/08 05:48:40;;;;;;;4.63;4.07;;;;;;;13.89;90.87;100274.31;5092602;28;20205;-83
2023/08/08 05:51:06;;;;;;;5.30;4.77;;;;;;;13.89;91.15;100277.84;5074348;28;20201;-82
2023/08/08 05:53:33;;;;;;;5.43;4.00;;;;;;;13.94;90.74;100279.28;5100372;28;20263;-83
2023/08/08 05:55:59;;;;;;;5.97;4.93;;;;;;;14.00;90.94;100276.94;5094403;28;20235;-82
2023/08/08 05:58:27;;;;;;;6.23;4.50;;;;;;;14.04;90.62;100277.53;5091766;28;20296;-82
2023/08/08 06:00:54;;;;;;;4.77;4.03;;;;;;;14.08;90.45;100282.50;5086541;28;20405;-83
2023/08/08 06:03:20;;;;;;;4.93;4.17;;;;;;;14.15;90.52;100285.53;5074807;28;20262;-82
2023/08/08 06:05:47;;;;;;;6.03;4.63;;;;;;;14.21;90.09;100279.63;5094803;28;20296;-82
2023/08/08 06:08:15;;;;;;;8.20;4.47;;;;;;;14.30;88.79;100275.34;5095465;28;20739;-84
2023/08/08 06:10:42;;;;;;;7.50;4.53;;;;;;;14.36;88.29;100281.03;5094521;28;20228;-82
2023/08/08 06:13:08;;;;;;;6.47;4.17;;;;;;;14.38;88.73;100281.75;5093935;28;20288;-82
2023/08/08 06:15:36;;;;;;;4.97;4.30;;;;;;;14.41;88.37;100284.19;5094813;28;20216;-82
2023/08/08 06:18:03;;;;;;;5.97;4.37;;;;;;;14.47;87.93;100294.41;5094877;28;20204;-82
2023/08/08 06:20:29;;;;;;;5.03;4.20;;;;;;;14.52;87.48;100289.47;5095034;28;20232;-81
2023/08/08 06:22:56;;;;;;;4.37;3.90;;;;;;;14.50;87.41;100293.28;5093968;28;20212;-82
2023/08/08 06:25:23;;;;;;;5.63;4.23;;;;;;;14.51;87.33;100295.00;5102908;28;20260;-82
2023/08/08 06:27:49;;;;;;;3.93;3.50;;;;;;;14.56;87.57;100295.44;5080115;28;20200;-82
2023/08/08 06:30:16;;;;;;;4.43;3.57;;;;;;;14.59;87.33;100298.72;5090689;28;20262;-81
2023/08/08 06:32:44;;;;;;;4.60;4.20;;;;;;;14.58;86.96;100299.69;5093973;28;20200;-81
2023/08/08 06:35:11;;;;;;;3.93;3.53;;;;;;;14.61;87.03;100295.03;5094733;28;20200;-81
2023/08/08 06:37:37;;;;;;;5.70;4.60;;;;;;;14.64;87.66;100292.97;5094403;28;20669;-82
2023/08/08 06:40:07;;;;;;;6.30;4.60;;;;;;;14.71;87.83;100306.66;5093896;28;20230;-81
2023/08/08 06:42:33;;;;;;;4.33;3.90;;;;;;;14.82;88.12;100293.22;5087972;28;20589;-82
2023/08/08 06:44:59;;;;;;;6.87;4.70;;;;;;;14.93;87.49;100302.00;5087486;28;20236;-81
2023/08/08 06:47:26;;;;;;;5.63;4.57;;;;;;;15.08;87.44;100305.19;5086029;28;20206;-83
2023/08/08 06:49:54;;;;;;;5.63;5.10;;;;;;;15.22;86.38;100304.00;5085490;28;20225;-81
2023/08/08 06:52:20;;;;;;;6.43;5.17;;;;;;;15.35;85.75;100295.69;5086598;28;20214;-81
2023/08/08 06:54:47;;;;;;;6.13;5.60;;;;;;;15.46;84.74;100303.63;5092086;28;20193;-81
2023/08/08 06:57:13;;;;;;;5.30;4.80;;;;;;;15.59;84.36;100305.09;5095557;28;20206;-82
2023/08/08 06:59:40;;;;;;;6.67;5.17;;;;;;;15.73;83.15;100300.34;5087421;28;20226;-82
2023/08/08 07:02:06;;;;;;;6.10;5.60;;;;;;;15.85;82.33;100288.50;5097294;28;20671;-82
2023/08/08 07:04:33;;;;;;;6.37;5.53;;;;;;;15.90;80.92;100286.25;5090227;28;20273;-83
2023/08/08 07:07:00;;;;;;;6.67;5.20;;;;;;;15.97;80.79;100296.25;5096297;28;20201;-82
2023/08/08 07:09:27;;;;;;;6.10;5.57;;;;;;;16.10;80.00;100282.56;5089341;28;20766;-82
2023/08/08 07:11:53;;;;;;;5.70;5.23;;;;;;;16.19;79.90;100299.66;5082043;28;20225;-82
2023/08/08 07:14:20;;;;;;;5.23;4.83;;;;;;;16.24;78.51;100297.41;5091944;28;20644;-83
2023/08/08 07:16:47;;;;;;;7.80;5.37;;;;;;;16.31;78.13;100298.53;5084131;28;20831;-82
2023/08/08 07:19:14;;;;;;;6.23;5.63;;;;;;;16.43;78.05;100293.88;5082685;28;20228;-82
2023/08/08 07:21:41;;;;;;;9.20;5.73;;;;;;;16.51;76.55;100294.84;5088376;28;20222;-80
2023/08/08 07:24:09;;;;;;;6.77;5.70;;;;;;;16.60;76.22;100280.53;5091198;28;20262;-81
2023/08/08 07:26:36;;;;;;;7.47;5.90;;;;;;;16.67;75.39;100291.59;5084543;28;20260;-81
2023/08/08 07:29:04;;;;;;;6.37;5.87;;;;;;;16.73;74.67;100290.16;5091397;28;20234;-81
2023/08/08 07:31:30;;;;;;;6.47;5.17;;;;;;;16.82;73.77;100290.16;5088909;28;20260;-81
2023/08/08 07:33:57;;;;;;;6.23;5.20;;;;;;;16.92;74.01;100288.28;5097320;28;20921;-82
2023/08/08 07:36:23;;;;;;;6.50;5.20;;;;;;;16.98;73.23;100282.31;5088580;28;20206;-81
2023/08/08 07:38:50;;;;;;;6.30;4.90;;;;;;;17.06;71.92;100276.19;5092904;28;20651;-81
2023/08/08 07:41:18;;;;;;;4.63;4.23;;;;;;;17.14;70.34;100273.59;5078085;28;20201;-82
2023/08/08 07:43:44;;;;;;;6.73;4.77;;;;;;;17.23;69.74;100274.53;5085839;28;20251;-81
2023/08/08 07:46:11;;;;;;;6.30;4.70;;;;;;;17.32;70.04;100281.75;5088956;28;20228;-82
2023/08/08 07:48:37;;;;;;;6.57;5.37;;;;;;;17.33;68.50;100288.81;5090332;28;20216;-81
2023/08/08 07:51:04;;;;;;;5.37;4.57;;;;;;;17.33;68.90;100283.44;5093914;28;20208;-82
2023/08/08 07:53:30;;;;;;;5.10;4.00;;;;;;;17.40;68.89;100283.66;5098971;28;20301;-81
2023/08/08 07:55:57;;;;;;;11.37;4.80;;;;;;;17.46;68.31;100277.69;5086675;28;20670;-82
2023/08/08 07:58:25;;;;;;;5.83;4.30;;;;;;;17.54;68.44;100281.34;5098559;28;20237;-83
2023/08/08 08:00:53;;;;;;;5.23;3.70;;;;;;;17.66;67.56;100276.63;5098216;28;20234;-82
2023/08/08 08:03:19;;;;;;;4.87;4.00;;;;;;;17.78;67.52;100267.31;5105747;28;20209;-84
2023/08/08 08:05:46;;;;;;;4.23;3.70;;;;;;;17.96;67.52;100284.34;5088848;28;20228;-82
2023/08/08 08:08:13;;;;;;;6.87;4.13;;;;;;;18.16;66.68;100270.72;5087908;28;20205;-80
2023/08/08 08:10:40;;;;;;;4.37;3.20;;;;;;;18.30;65.27;100259.38;5094627;28;20733;-81
2023/08/08 08:13:07;;;;;;;4.17;3.40;;;;;;;18.42;64.66;100266.22;5089999;28;20223;-81
2023/08/08 08:15:37;;;;;;;3.90;3.07;;;;;;;18.57;63.60;100263.81;5091417;28;20284;-80
2023/08/08 08:18:03;;;;;;;2.80;2.60;;;;;;;18.59;62.10;100262.69;5086179;28;20712;-81
2023/08/08 08:20:30;;;;;;;4.70;3.30;;;;;;;18.67;63.22;100265.41;5092801;28;20230;-81
2023/08/08 08:22:56;;;;;;;5.40;2.83;;;;;;;18.80;62.14;100253.38;5098667;28;20291;-82
2023/08/08 08:25:23;;;;;;;6.13;2.50;;;;;;;18.86;61.07;100244.63;5096518;28;20602;-82
2023/08/08 08:27:49;;;;;;;4.10;2.90;;;;;;;18.87;60.25;100238.22;5097354;28;20204;-82
2023/08/08 08:30:16;;;;;;;2.30;2.10;;;;;;;18.90;59.50;100267.59;5097233;28;20228;-81
2023/08/08 08:32:44;;;;;;;3.03;2.03;;;;;;;18.97;59.94;100228.16;5097178;28;20681;-81
2023/08/08 08:35:12;;;;;;;3.20;2.30;;;;;;;19.01;59.11;100251.09;5098119;28;20674;-83
2023/08/08 08:37:39;;;;;;;3.07;2.67;;;;;;;18.94;59.92;100244.69;5098175;28;20819;-81
2023/08/08 08:40:06;;;;;;;3.80;2.93;;;;;;;18.84;60.71;100242.06;5098255;28;20222;-82
2023/08/08 08:42:33;;;;;;;3.90;2.70;;;;;;;18.67;61.46;100257.31;5096111;28;20238;-81
2023/08/08 08:45:02;;;;;;;5.63;3.83;;;;;;;18.63;67.24;100265.91;5097954;28;20227;-80
2023/08/08 08:47:31;;;;;;;6.37;4.23;;;;;;;18.49;68.13;100264.56;5094384;28;20237;-81
2023/08/08 08:50:01;;;;;;;5.63;3.63;;;;;;;18.32;68.93;100252.81;5084430;28;20289;-82
2023/08/08 08:52:27;;;;;;;7.93;3.90;;;;;;;18.15;69.74;100250.16;5095924;28;20739;-80
2023/08/08 08:54:54;;;;;;;5.13;4.10;;;;;;;18.02;71.75;100254.09;5080013;28;20204;-81
2023/08/08 08:57:25;;;;;;;6.03;3.50;;;;;;;17.86;71.39;100258.47;5088854;28;20203;-81
2023/08/08 08:59:51;;;;;;;5.90;3.63;;;;;;;17.76;72.62;100265.75;5094244;28;20234;-80
2023/08/08 09:02:21;;;;;;;5.63;3.60;;;;;;;17.53;71.99;100263.50;5094950;28;20201;-82
2023/08/08 09:04:48;;;;;;;6.27;4.10;;;;;;;17.44;73.08;100255.47;5076776;28;20229;-81
2023/08/08 09:07:20;;;;;;;5.73;4.47;;;;;;;17.29;73.27;100260.50;5085644;28;20635;-82
2023/08/08 09:09:46;;;;;;;5.47;4.67;;;;;;;17.19;72.83;100249.81;5095595;28;20264;-81
2023/08/08 09:12:13;;;;;;;5.60;3.97;;;;;;;17.11;73.87;100251.53;5098183;28;20217;-82
2023/08/08 09:14:41;;;;;;;4.90;3.73;;;;;;;17.02;74.52;100256.78;5090070;28;20231;-81
2023/08/08 09:17:12;;;;;;;3.73;3.40;;;;;;;16.94;75.60;100247.78;5083953;28;20205;-83
2023/08/08 09:19:38;;;;;;;6.40;4.13;;;;;;;16.91;77.03;100246.22;5089376;28;20225;-80
2023/08/08 09:22:05;;;;;;;5.20;4.17;;;;;;;16.91;77.95;100242.69;5092899;28;20211;-80
2023/08/08 09:24:33;;;;;;;4.87;4.20;;;;;;;16.92;78.61;100242.53;5084080;28;20227;-82
2023/08/08 09:27:01;;;;;;;5.67;4.00;;;;;;;16.89;78.46;100231.22;5093932;28;20580;-81
2023/08/08 09:29:28;;;;;;;7.10;4.60;;;;;;;16.89;79.16;100236.59;5095676;28;20247;-80
2023/08/08 09:31:54;;;;;;;6.57;4.90;;;;;;;16.84;78.75;100233.53;5098389;28;20205;-81
2023/08/08 09:34:25;;;;;;;5.77;4.07;;;;;;;16.83;77.60;100238.06;5091688;28;20219;-81
2023/08/08 09:36:52;;;;;;;6.47;4.70;;;;;;;16.65;78.25;100245.19;5092326;28;20286;-80
2023/08/08 09:39:19;;;;;;;5.40;4.90;;;;;;;16.56;79.61;100251.41;5094942;28;20252;-81
2023/08/08 09:41:48;;;;;;;4.87;4.33;;;;;;;16.41;78.02;100252.84;5092925;28;20208;-79
2023/08/08 09:44:14;;;;;;;6.50;5.37;;;;;;;16.23;79.14;100253.56;5076737;28;20235;-80
2023/08/08 09:46:41;;;;;;;5.30;4.40;;;;;;;16.16;80.19;100244.38;5094915;28;20234;-80
2023/08/08 09:49:07;;;;;;;5.60;5.10;;;;;;;16.10;80.77;100247.66;5085159;28;20231;-82
2023/08/08 09:51:34;;;;;;;6.03;5.00;;;;;;;16.12;82.02;100242.13;5088417;28;20215;-80
2023/08/08 09:54:01;;;;;;;7.90;6.17;;;;;;;16.12;83.29;100247.50;5093079;28;20271;-82
2023/08/08 09:56:29;;;;;;;6.73;5.20;;;;;;;16.17;84.38;100247.91;5091328;28;20215;-80
2023/08/08 09:58:58;;;;;;;7.70;5.53;;;;;;;16.23;85.83;100252.72;5093092;28;20229;-81
2023/08/08 10:01:26;;;;;;;7.97;5.77;;;;;;;16.22;86.06;100234.91;5093227;28;20212;-82
2023/08/08 10:03:53;;;;;;;6.17;5.23;;;;;;;16.20;85.75;100242.25;5092757;28;20697;-82
2023/08/08 10:06:20;;;;;;;9.10;6.23;;;;;;;16.15;85.38;100245.38;5092947;28;20234;-81
2023/08/08 10:08:47;;;;;;;6.40;5.53;;;;;;;16.24;87.90;100247.22;5093200;28;20205;-82
2023/08/08 10:11:14;;;;;;;5.63;4.97;;;;;;;16.39;88.09;100236.84;5092806;28;20580;-83
2023/08/08 10:13:50;;;;;;;6.83;4.87;;;;;;;16.41;85.77;100229.50;5093531;28;20709;-79
2023/08/08 10:16:18;;;;;;;5.10;4.50;;;;;;;16.48;83.50;100243.22;5092561;28;20553;-81
2023/08/08 10:18:45;;;;;;;7.03;5.20;;;;;;;16.56;84.97;100238.81;5095630;28;20198;-82
2023/08/08 10:21:13;;;;;;;7.00;4.93;;;;;;;16.70;83.30;100236.66;5093638;28;20204;-81
2023/08/08 10:23:40;;;;;;;5.50;5.00;;;;;;;16.82;82.56;100231.00;5090429;28;20257;-81
2023/08/08 10:26:18;;;;;;;6.50;5.53;;;;;;;16.94;81.98;100234.31;5090726;28;20234;-82
2023/08/08 10:28:54;;;;;;;5.40;4.97;;;;;;;17.06;79.37;100229.59;5092627;28;20216;-81
2023/08/08 10:31:25;;;;;;;7.60;4.83;;;;;;;17.07;77.08;100234.81;5096577;28;20204;-81
2023/08/08 10:34:02;;;;;;;9.17;4.90;;;;;;;17.20;78.85;100218.31;5079753;28;20209;-83
2023/08/08 10:36:44;;;;;;;9.73;5.47;;;;;;;17.32;77.39;100228.75;5091849;28;20209;-83
2023/08/08 10:39:15;;;;;;;7.97;6.07;;;;;;;17.49;77.73;100223.56;5098300;28;20231;-83
2023/08/08 10:41:46;;;;;;;7.47;5.50;;;;;;;17.67;75.45;100228.00;5097368;28;20596;-83
2023/08/08 10:44:14;;;;;;;6.37;4.40;;;;;;;17.84;74.33;100229.00;5097637;28;20223;-83
2023/08/08 10:46:42;;;;;;;5.53;4.70;;;;;;;18.02;73.18;100223.59;5096193;28;20233;-84
2023/08/08 10:49:08;;;;;;;5.83;5.00;;;;;;;18.16;70.93;100216.81;5096685;28;20303;-83
2023/08/08 10:51:38;;;;;;;7.20;5.33;;;;;;;18.34;72.69;100226.56;5096851;28;20205;-84
2023/08/08 10:54:06;;;;;;;5.87;4.57;;;;;;;18.55;70.77;100217.25;5095911;28;20211;-82
2023/08/08 10:56:32;;;;;;;4.10;3.37;;;;;;;18.72;67.33;100219.09;5096224;28;20199;-82
2023/08/08 10:58:59;;;;;;;5.13;3.47;;;;;;;18.75;63.55;100216.06;5094930;28;20229;-84
2023/08/08 11:01:26;;;;;;;3.90;3.60;;;;;;;18.82;65.34;100218.94;5096158;28;20207;-83
2023/08/08 11:03:55;;;;;;;5.27;3.17;;;;;;;18.85;62.38;100224.88;5096440;28;20215;-83
2023/08/08 11:06:21;;;;;;;4.33;3.53;;;;;;;18.83;62.01;100215.25;5096133;28;20230;-83
2023/08/08 11:08:48;;;;;;;3.83;3.10;;;;;;;18.80;61.90;100218.28;5094808;28;20239;-83
2023/08/08 11:11:15;;;;;;;3.97;3.13;;;;;;;18.78;62.65;100225.69;5094664;28;20213;-83
2023/08/08 11:13:41;;;;;;;4.67;3.30;;;;;;;18.73;61.20;100218.94;5094700;28;20213;-82
2023/08/08 11:16:08;;;;;;;3.03;2.57;;;;;;;18.59;59.11;100235.69;5095416;28;20267;-82
2023/08/08 11:18:35;;;;;;;3.33;2.47;;;;;;;18.53;59.72;100230.91;5095507;28;20222;-84
2023/08/08 11:21:10;;;;;;;3.03;2.20;;;;;;;18.51;60.63;100214.03;5094529;28;20597;-83
2023/08/08 11:23:38;;;;;;;3.97;2.33;;;;;;;18.55;60.60;100209.16;5093758;28;20266;-81